McAdoo, Texas
Current Conditions -  °F | °C
As of 7:53 PM on Sunday 21 Dec 2014 (Local Time) from KLBB Reporting Station
Broken Clouds Broken Clouds  
Wind Chill: 57°   Ceiling: 20000
Heat Index: 57°   Visibility: 10mi
Dew Point: 27°   Wind: 15mph
Humidity: 32%   Direction: 250°WSW
Pressure: 29.64"   Gusts: NA
Location:  33.73°N, 101.01°W
Report Text: KLBB 220153Z 25013KT 10SM BKN200 14/M03 A2964 RMK AO2 SLP021 T01391028
Loading
Personal Weather Stations






























Interactive Weather Map New forecast layout! Learn more

10-Day Weather Forecast

Advertisements
Track Severe Weather on mobile